Normandie — FNNO — position and weather

sailwx.info

Track history (hours):
 
Tides and Currents Weather Stations Pressure Air Temp Water Temp Dewpoint Dewpoint Depression Visibility Wind Speed Wind Dir Waves Ship Positions

Normandie

Operator: Brittany Ferries

Last reported at 2018-Nov-11 02:32 UTC. Time now 2018-Nov-14 03:07 UTC.
Position N 50°01' W 000°38'.

Length 161 m; beam 27 m.

Type: Passenger vessel. MMSI: 227273000.

Date/timePositionNaut miles runAvg speedWind from/ knotsBaromVisibWave heightAir tempDewpointWater temp
2018-Nov-11 02:32N 50°01' W 000°38'1714.0
2018-Nov-11 01:20N 50°17' W 000°47'1713.1
2018-Nov-11 00:04N 50°33' W 000°55'013.1
2018-Nov-11 00:02N 50°33' W 000°55'713.5
2018-Nov-10 23:32N 50°39' W 000°59'713.6
2018-Nov-10 23:02N 50°45' W 001°05'4 7.7
2018-Nov-10 22:33N 50°49' W 001°06'0 0.0
2018-Nov-10 22:03N 50°49' W 001°06'0 0.0
2018-Nov-10 21:32N 50°49' W 001°06'1 1.8
2018-Nov-10 21:02N 50°48' W 001°07'713.4
2018-Nov-10 20:32N 50°43' W 001°00'917.6
2018-Nov-10 20:03N 50°35' W 000°56'2519.0
2018-Nov-10 18:43N 50°11' W 000°43'419.6
2018-Nov-10 18:32N 50°07' W 000°41'1019.8
2018-Nov-10 18:02N 49°58' W 000°36'1020.0
2018-Nov-10 17:33N 49°49' W 000°31'1020.0
2018-Nov-10 17:02N 49°39' W 000°26'1020.0
2018-Nov-10 16:32N 49°30' W 000°20'1020.1
2018-Nov-10 16:03N 49°21' W 000°15'3 6.6
2018-Nov-10 15:32N 49°17' W 000°15'0 0.0
2018-Nov-10 15:02N 49°17' W 000°15'0 0.0
2018-Nov-10 14:32N 49°17' W 000°15'5 9.0
2018-Nov-10 14:02N 49°22' W 000°15'918.4
2018-Nov-10 13:32N 49°30' W 000°20'918.7
2018-Nov-10 13:02N 49°39' W 000°26'918.9
2018-Nov-10 12:32N 49°48' W 000°31'1019.3
2018-Nov-10 12:02N 49°57' W 000°36'1019.4
2018-Nov-10 11:32N 50°06' W 000°41'2818.8
2018-Nov-10 10:02N 50°33' W 000°55'918.3
2018-Nov-10 09:32N 50°41' W 001°00'713.3
2018-Nov-10 09:02N 50°47' W 001°06'2 3.7
2018-Nov-10 08:32N 50°49' W 001°06'0 0.0
2018-Nov-10 08:02N 50°49' W 001°06'0 0.0
2018-Nov-10 07:32N 50°49' W 001°06'0 0.0
2018-Nov-10 07:02N 50°49' W 001°06'0 0.8
2018-Nov-10 06:32N 50°49' W 001°06'511.0
2018-Nov-10 06:02N 50°44' W 001°03'714.5
2018-Nov-10 05:32N 50°37' W 001°00'917.5
2018-Nov-10 05:02N 50°28' W 001°03'2014.7
2018-Nov-10 03:40N 50°08' W 001°11'313.9
2018-Nov-10 03:29N 50°06' W 001°13'614.2
2018-Nov-10 03:02N 50°00' W 001°16'714.5
2018-Nov-10 02:32N 49°53' W 001°19'611.4
2018-Nov-10 02:02N 49°48' W 001°16'714.6
2018-Nov-10 01:33N 49°44' W 001°06'612.8
2018-Nov-10 01:02N 49°41' W 000°58'611.6
2018-Nov-10 00:32N 49°38' W 000°50'611.0
2018-Nov-10 00:02N 49°35' W 000°43'713.7
2018-Nov-09 23:32N 49°31' W 000°34'714.2
2018-Nov-09 23:02N 49°28' W 000°24'713.9
2018-Nov-09 22:32N 49°24' W 000°16'612.4
2018-Nov-09 22:02N 49°17' W 000°15'0 0.1
2018-Nov-09 21:32N 49°17' W 000°15'0 0.0
2018-Nov-09 21:02N 49°17' W 000°15'0 0.0
2018-Nov-09 20:32N 49°17' W 000°15'0 0.0
2018-Nov-09 20:02N 49°17' W 000°15'0 0.0
2018-Nov-09 19:32N 49°17' W 000°15'0 0.0
2018-Nov-09 19:02N 49°17' W 000°15'0 0.0
2018-Nov-09 18:32N 49°17' W 000°15'0 0.0
2018-Nov-09 18:02N 49°17' W 000°15'0 0.0
2018-Nov-09 17:32N 49°17' W 000°15'0 0.0
2018-Nov-09 17:02N 49°17' W 000°15'0 0.0
2018-Nov-09 16:32N 49°17' W 000°15'0 0.0
2018-Nov-09 16:02N 49°17' W 000°15'0 0.0
2018-Nov-09 15:32N 49°17' W 000°15'0 0.0
2018-Nov-09 15:02N 49°17' W 000°15'0 0.0
2018-Nov-09 14:32N 49°17' W 000°15'1 1.7
2018-Nov-09 14:03N 49°18' W 000°15'816.5
2018-Nov-09 13:32N 49°26' W 000°18'918.2
2018-Nov-09 13:03N 49°35' W 000°23'815.9
2018-Nov-09 12:32N 49°42' W 000°26'816.0
2018-Nov-09 12:02N 49°50' W 000°29'816.2
2018-Nov-09 11:32N 49°58' W 000°33'816.3
2018-Nov-09 11:02N 50°06' W 000°37'3018.0
2018-Nov-09 09:23N 50°33' W 000°55'618.8
2018-Nov-09 09:02N 50°39' W 000°59'816.9
2018-Nov-09 08:32N 50°46' W 001°06'2 4.8
2018-Nov-09 08:02N 50°49' W 001°06'0 0.0
2018-Nov-09 07:32N 50°49' W 001°06'0 0.0
2018-Nov-09 07:02N 50°49' W 001°06'1 1.6
2018-Nov-09 06:32N 50°48' W 001°07'611.2
2018-Nov-09 06:03N 50°44' W 001°02'713.7
2018-Nov-09 05:33N 50°37' W 000°58'714.8
2018-Nov-09 05:02N 50°30' W 000°54'2511.5
2018-Nov-09 02:54N 50°07' W 000°41'510.8
2018-Nov-09 02:28N 50°03' W 000°39'511.5
2018-Nov-09 02:03N 49°58' W 000°36'611.5
2018-Nov-09 01:32N 49°53' W 000°32'611.5
2018-Nov-09 01:02N 49°47' W 000°29'611.3
2018-Nov-09 00:32N 49°42' W 000°26'611.0
2018-Nov-09 00:02N 49°37' W 000°22'510.6
2018-Nov-08 23:33N 49°32' W 000°19'510.4
2018-Nov-08 23:02N 49°27' W 000°17'510.3
2018-Nov-08 22:33N 49°22' W 000°15'510.0
2018-Nov-08 22:02N 49°17' W 000°15'0 0.1
2018-Nov-08 21:32N 49°17' W 000°15'0 0.0
2018-Nov-08 21:02N 49°17' W 000°15'0 0.0
2018-Nov-08 20:32N 49°17' W 000°15'2 4.0
2018-Nov-08 20:03N 49°19' W 000°15'918.2
2018-Nov-08 19:33N 49°28' W 000°19'918.6
2018-Nov-08 19:03N 49°36' W 000°25'1019.0
2018-Nov-08 18:32N 49°46' W 000°29'918.9
2018-Nov-08 18:02N 49°55' W 000°34'918.3
2018-Nov-08 17:33N 50°03' W 000°39'3117.8
2018-Nov-08 15:49N 50°32' W 000°57'518.0
2018-Nov-08 15:33N 50°36' W 000°58'816.4
2018-Nov-08 15:03N 50°44' W 001°03'5 9.9
2018-Nov-08 14:32N 50°49' W 001°06'0 0.0
2018-Nov-08 14:02N 50°49' W 001°06'0 0.0
2018-Nov-08 13:32N 50°49' W 001°06'0 0.2
2018-Nov-08 13:02N 50°49' W 001°06'4 8.4
2018-Nov-08 12:32N 50°45' W 001°05'918.0
2018-Nov-08 12:02N 50°37' W 000°57'918.4
2018-Nov-08 11:32N 50°28' W 000°52'1619.3
2018-Nov-08 10:42N 50°13' W 000°43'419.0
2018-Nov-08 10:28N 50°09' W 000°41'818.7
2018-Nov-08 10:02N 50°01' W 000°37'918.5
2018-Nov-08 09:32N 49°52' W 000°32'918.7
2018-Nov-08 09:02N 49°44' W 000°28'919.0
2018-Nov-08 08:32N 49°35' W 000°23'918.8
2018-Nov-08 08:02N 49°26' W 000°18'817.0
2018-Nov-08 07:33N 49°18' W 000°15'0 0.5
2018-Nov-08 07:02N 49°17' W 000°15'0 0.0
2018-Nov-08 06:32N 49°17' W 000°15'0 0.0
2018-Nov-08 06:02N 49°17' W 000°15'0 0.3
2018-Nov-08 05:32N 49°17' W 000°15'713.0
2018-Nov-08 05:02N 49°24' W 000°15'917.3
2018-Nov-08 04:32N 49°32' W 000°21'917.1
2018-Nov-08 04:02N 49°39' W 000°26'816.9
2018-Nov-08 03:32N 49°47' W 000°30'816.6
2018-Nov-08 03:02N 49°55' W 000°35'816.3
2018-Nov-08 02:32N 50°03' W 000°40'1114.6
2018-Nov-08 01:48N 50°13' W 000°46'2014.8
2018-Nov-08 00:28N 50°32' W 000°55'614.7
2018-Nov-08 00:02N 50°38' W 000°58'713.8
2018-Nov-07 23:32N 50°44' W 001°03'510.9
2018-Nov-07 23:02N 50°49' W 001°06'0 0.8
2018-Nov-07 22:32N 50°49' W 001°06'0 0.0
2018-Nov-07 22:03N 50°49' W 001°06'0 0.1
2018-Nov-07 21:32N 50°49' W 001°06'3 5.4
2018-Nov-07 21:02N 50°46' W 001°05'917.2
2018-Nov-07 20:32N 50°39' W 000°59'918.1
2018-Nov-07 20:02N 50°30' W 000°54'2917.4
2018-Nov-07 18:22N 50°03' W 000°38'617.9
2018-Nov-07 18:02N 49°57' W 000°35'918.1
2018-Nov-07 17:32N 49°49' W 000°30'918.7
2018-Nov-07 17:02N 49°40' W 000°25'918.8
2018-Nov-07 16:32N 49°31' W 000°21'1019.4
2018-Nov-07 16:02N 49°22' W 000°15'5 9.4
2018-Nov-07 15:32N 49°17' W 000°15'0 0.0
2018-Nov-07 15:02N 49°17' W 000°15'0 0.0
2018-Nov-07 14:32N 49°17' W 000°15'0 0.0
2018-Nov-07 14:02N 49°17' W 000°15'510.4
2018-Nov-07 13:32N 49°23' W 000°15'918.3
2018-Nov-07 13:02N 49°32' W 000°17'918.3
2018-Nov-07 12:32N 49°41' W 000°20'918.0
2018-Nov-07 12:02N 49°49' W 000°25'918.0
2018-Nov-07 11:32N 49°57' W 000°30'917.9
2018-Nov-07 11:02N 50°06' W 000°35'2917.8
2018-Nov-07 09:24N 50°32' W 000°54'617.8
2018-Nov-07 09:02N 50°38' W 000°58'815.8
2018-Nov-07 08:32N 50°45' W 001°05'4 8.0
2018-Nov-07 08:02N 50°49' W 001°06'0 0.0
2018-Nov-07 07:32N 50°49' W 001°06'0 0.0
2018-Nov-07 07:02N 50°49' W 001°06'0 0.3
2018-Nov-07 06:32N 50°49' W 001°06'510.2
2018-Nov-07 06:03N 50°44' W 001°03'611.6
2018-Nov-07 05:33N 50°39' W 000°58'714.3
2018-Nov-07 05:03N 50°32' W 000°56'714.3
2018-Nov-07 04:32N 50°25' W 000°54'6312.6
2018-Nov-06 23:31N 49°27' W 000°13'1 2.4
2018-Nov-06 23:03N 49°26' W 000°13'0 2.3
2018-Nov-06 23:01N 49°26' W 000°13'9 9.0
2018-Nov-06 22:00N 49°17' W 000°15'0 0.0
2018-Nov-06 21:30N 49°17' W 000°15'0 0.0
2018-Nov-06 21:03N 49°17' W 000°15'0 0.0
2018-Nov-06 21:00N 49°17' W 000°15'0 0.0
2018-Nov-06 20:30N 49°17' W 000°15'512.0
2018-Nov-06 20:03N 49°23' W 000°14'118.7
2018-Nov-06 20:00N 49°24' W 000°14'1019.2
2018-Nov-06 19:30N 49°32' W 000°20'919.1
2018-Nov-06 19:03N 49°40' W 000°24'119.6
2018-Nov-06 19:00N 49°41' W 000°25'1019.7
2018-Nov-06 18:30N 49°51' W 000°30'919.9
2018-Nov-06 18:03N 49°59' W 000°34'119.8
2018-Nov-06 18:00N 50°00' W 000°35'3519.3
2018-Nov-06 16:10N 50°33' W 000°53'218.8
2018-Nov-06 16:03N 50°36' W 000°54'118.8
2018-Nov-06 16:00N 50°36' W 000°55'816.7
2018-Nov-06 15:30N 50°44' W 001°02'613.1
2018-Nov-06 15:04N 50°48' W 001°07'0 8.7
2018-Nov-06 15:00N 50°49' W 001°06'0 0.6
2018-Nov-06 14:30N 50°49' W 001°06'0 0.0
2018-Nov-06 14:03N 50°49' W 001°06'0 0.0
2018-Nov-06 14:00N 50°49' W 001°06'0 0.0
2018-Nov-06 13:30N 50°49' W 001°06'0 0.2
2018-Nov-06 13:04N 50°49' W 001°06'0 5.6
2018-Nov-06 13:00N 50°49' W 001°06'612.2
2018-Nov-06 12:31N 50°43' W 001°02'817.6
2018-Nov-06 12:03N 50°35' W 000°59'117.9
2018-Nov-06 12:01N 50°35' W 000°59'1318.5
2018-Nov-06 11:18N 50°22' W 000°54'1019.6
2018-Nov-06 10:49N 50°15' W 000°43'719.0
2018-Nov-06 10:28N 50°09' W 000°40'818.8
2018-Nov-06 10:03N 50°02' W 000°36'118.6
2018-Nov-06 10:00N 50°01' W 000°35'918.5
2018-Nov-06 09:30N 49°52' W 000°30'818.3
2018-Nov-06 09:03N 49°44' W 000°25'118.5
2018-Nov-06 09:01N 49°44' W 000°25'918.4
2018-Nov-06 08:31N 49°35' W 000°21'818.0
2018-Nov-06 08:03N 49°27' W 000°18'118.3
2018-Nov-06 08:01N 49°26' W 000°17'816.8
2018-Nov-06 07:31N 49°18' W 000°15'1 1.1
2018-Nov-06 07:04N 49°17' W 000°15'0 0.0
2018-Nov-06 07:01N 49°17' W 000°15'0 0.0
2018-Nov-06 06:31N 49°17' W 000°15'0 0.0
2018-Nov-06 06:03N 49°17' W 000°15'0 0.0
2018-Nov-06 06:01N 49°17' W 000°15'0 0.2
2018-Nov-06 05:31N 49°17' W 000°15'714.9
2018-Nov-06 05:04N 49°24' W 000°15'119.6
2018-Nov-06 05:00N 49°25' W 000°16'816.9
2018-Nov-06 04:31N 49°32' W 000°21'716.3
2018-Nov-06 04:03N 49°39' W 000°27'116.0
2018-Nov-06 04:01N 49°40' W 000°27'815.9
2018-Nov-06 03:31N 49°47' W 000°33'715.5
2018-Nov-06 03:03N 49°53' W 000°37'115.4
2018-Nov-06 03:01N 49°54' W 000°38'815.2
2018-Nov-06 02:30N 50°01' W 000°41'715.3
2018-Nov-06 02:03N 50°08' W 000°44'215.2
2018-Nov-06 01:57N 50°09' W 000°45'715.2
2018-Nov-06 01:31N 50°16' W 000°48'1515.4
2018-Nov-06 00:31N 50°30' W 000°55'1514.6
2018-Nov-05 23:31N 50°44' W 001°03'510.7
2018-Nov-05 23:03N 50°48' W 001°07'0 8.6
2018-Nov-05 23:00N 50°49' W 001°07'1 1.1
2018-Nov-05 22:30N 50°49' W 001°06'0 0.0
2018-Nov-05 22:03N 50°49' W 001°06'0 0.0
2018-Nov-05 22:00N 50°49' W 001°06'0 0.2
2018-Nov-05 21:30N 50°49' W 001°06'3 5.6
2018-Nov-05 21:03N 50°46' W 001°06'117.0
2018-Nov-05 21:00N 50°45' W 001°05'917.7
2018-Nov-05 20:30N 50°38' W 000°58'919.3
2018-Nov-05 20:03N 50°29' W 000°54'118.9
2018-Nov-05 20:00N 50°28' W 000°53'1319.3
2018-Nov-05 19:19N 50°16' W 000°46'518.9
2018-Nov-05 19:03N 50°11' W 000°43'118.9
2018-Nov-05 19:00N 50°11' W 000°43'918.7
2018-Nov-05 18:30N 50°02' W 000°38'818.5
2018-Nov-05 18:03N 49°54' W 000°33'118.5
2018-Nov-05 18:00N 49°53' W 000°33'918.5
2018-Nov-05 17:30N 49°44' W 000°28'818.6
2018-Nov-05 17:03N 49°37' W 000°24'118.5
2018-Nov-05 17:00N 49°36' W 000°23'918.7
2018-Nov-05 16:30N 49°27' W 000°18'817.9
2018-Nov-05 16:03N 49°19' W 000°15'114.3
2018-Nov-05 16:00N 49°18' W 000°15'1 2.3
2018-Nov-05 15:30N 49°17' W 000°15'0 0.0
2018-Nov-05 15:03N 49°17' W 000°15'0 0.0
2018-Nov-05 15:01N 49°17' W 000°15'0 0.2
2018-Nov-05 14:30N 49°17' W 000°15'511.6
2018-Nov-05 14:04N 49°22' W 000°15'118.4
2018-Nov-05 14:01N 49°23' W 000°15'1818.4
2018-Nov-05 13:03N 49°39' W 000°26'118.2
2018-Nov-05 13:00N 49°40' W 000°26'918.2
2018-Nov-05 12:31N 49°49' W 000°31'818.0
2018-Nov-05 12:04N 49°56' W 000°37'117.4
2018-Nov-05 12:01N 49°57' W 000°37'918.0
2018-Nov-05 11:30N 50°05' W 000°43'818.1
2018-Nov-05 11:04N 50°13' W 000°47'118.2
2018-Nov-05 11:00N 50°14' W 000°48'918.8
2018-Nov-05 10:31N 50°23' W 000°51'918.8
2018-Nov-05 10:03N 50°31' W 000°54'118.1
2018-Nov-05 09:58N 50°33' W 000°55'918.6
2018-Nov-05 09:30N 50°41' W 001°00'816.8
2018-Nov-05 09:03N 50°47' W 001°06'110.7
2018-Nov-05 09:00N 50°47' W 001°07'1 2.7
2018-Nov-05 08:30N 50°49' W 001°06'0 0.0
2018-Nov-05 08:03N 50°49' W 001°06'0 0.0
2018-Nov-05 08:00N 50°49' W 001°06'0 0.0
2018-Nov-05 07:30N 50°49' W 001°06'0 0.0
2018-Nov-05 07:03N 50°49' W 001°06'0 0.0
2018-Nov-05 07:00N 50°49' W 001°06'0 0.2
2018-Nov-05 06:31N 50°49' W 001°06'4 8.2
2018-Nov-05 06:03N 50°45' W 001°05'114.6
2018-Nov-05 06:00N 50°44' W 001°04'715.0
2018-Nov-05 05:30N 50°38' W 000°58'714.9
2018-Nov-05 05:03N 50°32' W 000°54'114.5
2018-Nov-05 05:00N 50°31' W 000°53'714.6
2018-Nov-05 04:30N 50°24' W 000°49'714.9
2018-Nov-05 04:03N 50°18' W 000°48'514.8
2018-Nov-05 03:42N 50°12' W 000°46'514.7
2018-Nov-05 03:23N 50°08' W 000°44'310.7
2018-Nov-05 03:03N 50°05' W 000°43'110.7
2018-Nov-05 03:00N 50°04' W 000°43'510.9
2018-Nov-05 02:30N 49°59' W 000°40'511.0
2018-Nov-05 02:03N 49°54' W 000°38'111.1
2018-Nov-05 02:00N 49°54' W 000°38'611.2
2018-Nov-05 01:30N 49°48' W 000°35'511.3
2018-Nov-05 01:03N 49°44' W 000°32'111.4
2018-Nov-05 01:00N 49°43' W 000°32'611.3
2018-Nov-05 00:30N 49°38' W 000°29'511.4
2018-Nov-05 00:03N 49°33' W 000°26'111.4
2018-Nov-05 00:00N 49°33' W 000°25'611.6
2018-Nov-04 23:30N 49°28' W 000°21'511.6
2018-Nov-04 23:03N 49°23' W 000°16'111.5
2018-Nov-04 23:00N 49°23' W 000°16'510.8
2018-Nov-04 22:31N 49°17' W 000°15'0 0.1
2018-Nov-04 22:03N 49°17' W 000°15'0 0.0
2018-Nov-04 22:01N 49°17' W 000°15'0 0.0
2018-Nov-04 21:31N 49°17' W 000°15'0 0.0
2018-Nov-04 21:04N 49°17' W 000°15'0 0.0
2018-Nov-04 21:01N 49°17' W 000°15'0 0.0
2018-Nov-04 20:31N 49°17' W 000°15'4 9.6
2018-Nov-04 20:03N 49°22' W 000°14'118.9
2018-Nov-04 20:00N 49°23' W 000°14'918.7
2018-Nov-04 19:30N 49°32' W 000°17'818.7
2018-Nov-04 19:03N 49°40' W 000°21'119.1
2018-Nov-04 19:00N 49°41' W 000°22'1019.1
2018-Nov-04 18:30N 49°50' W 000°27'919.4
2018-Nov-04 18:03N 49°58' W 000°33'119.8
2018-Nov-04 18:00N 49°58' W 000°34'1519.5
2018-Nov-04 17:14N 50°12' W 000°43'519.5
2018-Nov-04 16:58N 50°17' W 000°46'1719.3
2018-Nov-04 16:06N 50°33' W 000°55'119.3
2018-Nov-04 16:03N 50°34' W 000°55'119.2
2018-Nov-04 16:00N 50°35' W 000°56'917.6
2018-Nov-04 15:30N 50°43' W 000°60'714.4
2018-Nov-04 15:03N 50°48' W 001°07'0 9.7
2018-Nov-04 15:01N 50°48' W 001°07'1 1.7
2018-Nov-04 14:30N 50°49' W 001°06'0 0.0
2018-Nov-04 14:03N 50°49' W 001°06'0 0.0
2018-Nov-04 14:00N 50°49' W 001°06'0 0.0
2018-Nov-04 13:30N 50°49' W 001°06'1 1.9
2018-Nov-04 13:03N 50°48' W 001°07'110.3
2018-Nov-04 13:00N 50°48' W 001°07'714.1
2018-Nov-04 12:30N 50°42' W 001°01'817.0
2018-Nov-04 12:03N 50°34' W 000°59'118.2
2018-Nov-04 12:00N 50°33' W 000°59'1018.5
2018-Nov-04 11:29N 50°24' W 000°54'818.9
2018-Nov-04 11:03N 50°16' W 000°49'119.3
2018-Nov-04 11:00N 50°16' W 000°49'1019.4
2018-Nov-04 10:30N 50°07' W 000°42'919.2
2018-Nov-04 10:04N 49°59' W 000°36'119.2
2018-Nov-04 10:00N 49°58' W 000°36'1019.2
2018-Nov-04 09:30N 49°49' W 000°31'919.0
2018-Nov-04 09:03N 49°41' W 000°26'119.0
2018-Nov-04 09:00N 49°40' W 000°26'918.8
2018-Nov-04 08:30N 49°32' W 000°20'818.5
2018-Nov-04 08:03N 49°24' W 000°16'118.4
2018-Nov-04 08:00N 49°23' W 000°15'510.9
2018-Nov-04 07:30N 49°17' W 000°15'0 0.0
2018-Nov-04 07:03N 49°17' W 000°15'0 0.0
2018-Nov-04 07:00N 49°17' W 000°15'0 0.0
2018-Nov-04 06:30N 49°17' W 000°15'0 0.0
2018-Nov-04 06:03N 49°17' W 000°15'0 0.0
2018-Nov-04 06:00N 49°17' W 000°15'0 0.2
2018-Nov-04 05:31N 49°17' W 000°15'613.8
2018-Nov-04 05:03N 49°23' W 000°15'116.9
2018-Nov-04 05:00N 49°24' W 000°15'816.6
2018-Nov-04 04:30N 49°32' W 000°19'716.5
2018-Nov-04 04:03N 49°39' W 000°23'116.7
2018-Nov-04 04:00N 49°40' W 000°23'816.7
2018-Nov-04 03:30N 49°48' W 000°27'816.9
2018-Nov-04 03:03N 49°55' W 000°30'117.0
2018-Nov-04 03:00N 49°56' W 000°31'816.7
2018-Nov-04 02:30N 50°04' W 000°36'816.3
2018-Nov-04 02:00N 50°11' W 000°41'815.9
2018-Nov-04 01:31N 50°19' W 000°46'614.0
2018-Nov-04 01:03N 50°25' W 000°49'613.3
2018-Nov-04 00:36N 50°30' W 000°53'213.2
2018-Nov-04 00:28N 50°32' W 000°54'513.3
2018-Nov-04 00:03N 50°37' W 000°58'113.6
2018-Nov-04 00:00N 50°37' W 000°58'713.8
2018-Nov-03 23:30N 50°43' W 001°03'612.7
2018-Nov-03 23:03N 50°49' W 001°07'0 8.2
2018-Nov-03 23:00N 50°49' W 001°06'0 0.4
2018-Nov-03 22:30N 50°49' W 001°06'6 3.2
2018-Nov-03 20:30N 50°43' W 001°02'818.4
2018-Nov-03 20:03N 50°35' W 000°57'119.8
2018-Nov-03 20:00N 50°34' W 000°57'1419.6
2018-Nov-03 19:16N 50°21' W 000°49'819.5
2018-Nov-03 18:50N 50°13' W 000°44'719.4
2018-Nov-03 18:28N 50°06' W 000°40'819.0
2018-Nov-03 18:03N 49°59' W 000°36'119.0
2018-Nov-03 18:00N 49°58' W 000°35'917.7
2018-Nov-03 17:30N 49°49' W 000°31'817.7
2018-Nov-03 17:03N 49°42' W 000°27'117.8
2018-Nov-03 17:00N 49°41' W 000°27'917.7
2018-Nov-03 16:30N 49°33' W 000°22'817.0
2018-Nov-03 16:03N 49°26' W 000°17'117.4
2018-Nov-03 16:00N 49°25' W 000°17'815.2
2018-Nov-03 15:30N 49°17' W 000°15'0 0.1
2018-Nov-03 15:03N 49°17' W 000°15'0 0.0
2018-Nov-03 15:00N 49°17' W 000°15'0 0.0
2018-Nov-03 14:30N 49°17' W 000°15'0 0.0
2018-Nov-03 14:03N 49°17' W 000°15'0 0.0
2018-Nov-03 14:00N 49°17' W 000°15'4 8.7
2018-Nov-03 13:31N 49°22' W 000°14'918.9
2018-Nov-03 13:03N 49°30' W 000°15'118.9
2018-Nov-03 13:01N 49°31' W 000°15'918.9
2018-Nov-03 12:31N 49°40' W 000°21'818.7
2018-Nov-03 12:04N 49°47' W 000°27'118.7
2018-Nov-03 12:01N 49°48' W 000°28'918.6
2018-Nov-03 11:30N 49°56' W 000°34'818.3
2018-Nov-03 11:03N 50°04' W 000°40'118.3
2018-Nov-03 11:01N 50°04' W 000°41'1418.4
2018-Nov-03 10:15N 50°18' W 000°48'818.7
2018-Nov-03 09:50N 50°25' W 000°52'818.4
2018-Nov-03 09:22N 50°33' W 000°56'618.4
2018-Nov-03 09:03N 50°39' W 000°59'117.7
2018-Nov-03 09:01N 50°39' W 000°60'815.8
2018-Nov-03 08:31N 50°46' W 001°06'2 5.5
2018-Nov-03 08:03N 50°49' W 001°06'0 0.0
2018-Nov-03 08:00N 50°49' W 001°06'0 0.0
2018-Nov-03 07:30N 50°49' W 001°06'0 0.0
2018-Nov-03 07:03N 50°49' W 001°06'0 0.0
2018-Nov-03 07:00N 50°49' W 001°06'0 0.3
2018-Nov-03 06:30N 50°49' W 001°06'3 7.4
2018-Nov-03 06:04N 50°45' W 001°05'115.2
2018-Nov-03 06:01N 50°45' W 001°05'714.8
2018-Nov-03 05:30N 50°38' W 000°59'715.3
2018-Nov-03 05:03N 50°32' W 000°56'115.3
2018-Nov-03 05:00N 50°31' W 000°55'2012.2
2018-Nov-03 03:22N 50°12' W 000°46'310.9
2018-Nov-03 03:04N 50°09' W 000°46'111.0
2018-Nov-03 03:00N 50°08' W 000°46'611.2
2018-Nov-03 02:30N 50°02' W 000°46'510.7
2018-Nov-03 02:03N 49°58' W 000°45'110.6
2018-Nov-03 02:00N 49°57' W 000°45'510.7
2018-Nov-03 01:31N 49°52' W 000°42'510.9
2018-Nov-03 01:03N 49°47' W 000°40'111.0
2018-Nov-03 01:00N 49°47' W 000°39'611.2
2018-Nov-03 00:30N 49°42' W 000°35'511.4
2018-Nov-03 00:03N 49°38' W 000°31'111.4
2018-Nov-03 00:00N 49°37' W 000°30'611.5
2018-Nov-02 23:30N 49°32' W 000°26'511.8
2018-Nov-02 23:03N 49°28' W 000°21'111.8
2018-Nov-02 23:00N 49°27' W 000°21'611.7
2018-Nov-02 22:30N 49°22' W 000°16'511.2
2018-Nov-02 22:03N 49°17' W 000°15'0 2.2
2018-Nov-02 22:00N 49°17' W 000°15'0 0.1
2018-Nov-02 21:30N 49°17' W 000°15'0 0.0
2018-Nov-02 21:03N 49°17' W 000°15'0 0.0
2018-Nov-02 21:00N 49°17' W 000°15'0 0.0
2018-Nov-02 20:30N 49°17' W 000°15'3 6.1
2018-Nov-02 20:03N 49°20' W 000°14'116.8
2018-Nov-02 20:00N 49°21' W 000°14'816.0
2018-Nov-02 19:31N 49°28' W 000°19'816.9
2018-Nov-02 19:03N 49°35' W 000°23'116.8
2018-Nov-02 19:00N 49°36' W 000°23'917.2
2018-Nov-02 18:30N 49°44' W 000°28'817.6
2018-Nov-02 18:03N 49°52' W 000°32'117.6
2018-Nov-02 18:00N 49°53' W 000°33'918.0
2018-Nov-02 17:30N 50°01' W 000°37'3418.2
2018-Nov-02 15:37N 50°33' W 000°56'217.9
2018-Nov-02 15:29N 50°35' W 000°57'716.6
2018-Nov-02 15:03N 50°42' W 001°01'116.0
2018-Nov-02 15:00N 50°43' W 001°02'613.0
2018-Nov-02 14:30N 50°49' W 001°06'0 0.9
2018-Nov-02 14:00N 50°49' W 001°06'0 0.0
2018-Nov-02 13:30N 50°49' W 001°06'0 0.0
2018-Nov-02 13:03N 50°49' W 001°06'0 0.0
2018-Nov-02 13:00N 50°49' W 001°06'2 3.6
2018-Nov-02 12:30N 50°47' W 001°06'715.6
2018-Nov-02 12:03N 50°42' W 000°58'117.6
2018-Nov-02 12:00N 50°41' W 000°58'918.8
2018-Nov-02 11:30N 50°32' W 000°54'1319.2
2018-Nov-02 10:50N 50°20' W 000°48'1819.7
2018-Nov-02 09:55N 50°03' W 000°39'819.8
2018-Nov-02 09:30N 49°55' W 000°35'919.8
2018-Nov-02 09:03N 49°46' W 000°31'120.1
2018-Nov-02 09:00N 49°45' W 000°30'1019.8
2018-Nov-02 08:30N 49°36' W 000°25'919.7
2018-Nov-02 08:03N 49°28' W 000°19'119.8
2018-Nov-02 08:00N 49°27' W 000°18'918.3
2018-Nov-02 07:30N 49°19' W 000°15'1 2.6
2018-Nov-02 07:03N 49°17' W 000°15'0 0.0
2018-Nov-02 07:00N 49°17' W 000°15'0 0.0
2018-Nov-02 06:30N 49°17' W 000°15'0 0.0
2018-Nov-02 06:03N 49°17' W 000°15'0 0.0
2018-Nov-02 06:00N 49°17' W 000°15'0 0.3
2018-Nov-02 05:31N 49°17' W 000°15'511.7
2018-Nov-02 05:03N 49°23' W 000°14'118.7
2018-Nov-02 05:00N 49°23' W 000°14'815.7
2018-Nov-02 04:30N 49°31' W 000°18'715.7
2018-Nov-02 04:03N 49°38' W 000°21'115.7
2018-Nov-02 04:00N 49°38' W 000°21'816.0
2018-Nov-02 03:30N 49°46' W 000°25'715.7
2018-Nov-02 03:03N 49°53' W 000°29'115.4
2018-Nov-02 03:00N 49°53' W 000°29'815.5
2018-Nov-02 02:30N 50°01' W 000°34'3415.3
2018-Nov-02 00:18N 50°31' W 000°55'414.8
2018-Nov-02 00:03N 50°35' W 000°57'114.6
2018-Nov-02 00:00N 50°36' W 000°57'714.2
2018-Nov-01 23:30N 50°42' W 000°59'613.8
2018-Nov-01 23:03N 50°47' W 001°06'110.2
2018-Nov-01 23:00N 50°47' W 001°07'2 3.1
2018-Nov-01 22:30N 50°49' W 001°06'0 0.0
2018-Nov-01 22:03N 50°49' W 001°06'0 0.0
2018-Nov-01 22:00N 50°49' W 001°06'0 0.0
2018-Nov-01 21:30N 50°49' W 001°06'1 1.5
2018-Nov-01 21:04N 50°48' W 001°07'0 9.4
2018-Nov-01 21:00N 50°48' W 001°07'713.7
2018-Nov-01 20:30N 50°42' W 001°01'818.0
2018-Nov-01 20:03N 50°35' W 000°56'119.4
2018-Nov-01 20:00N 50°34' W 000°55'1019.4
2018-Nov-01 19:30N 50°25' W 000°49'2419.3
2018-Nov-01 18:16N 50°02' W 000°38'419.2
2018-Nov-01 18:03N 49°58' W 000°37'119.3
2018-Nov-01 18:00N 49°57' W 000°36'1019.2
2018-Nov-01 17:30N 49°48' W 000°31'919.1
2018-Nov-01 17:03N 49°40' W 000°26'119.2
2018-Nov-01 17:00N 49°39' W 000°26'918.9
2018-Nov-01 16:30N 49°31' W 000°20'818.9
2018-Nov-01 16:03N 49°23' W 000°15'119.0
2018-Nov-01 16:00N 49°22' W 000°15'5 9.3
2018-Nov-01 15:31N 49°17' W 000°15'0 0.0
2018-Nov-01 15:03N 49°17' W 000°15'0 0.0
2018-Nov-01 15:00N 49°17' W 000°15'0 0.0
2018-Nov-01 14:03N 49°17' W 000°15'0 0.0
2018-Nov-01 14:00N 49°17' W 000°15'2 4.4
2018-Nov-01 13:31N 49°20' W 000°14'919.2
2018-Nov-01 13:03N 49°27' W 000°20'120.4
2018-Nov-01 13:00N 49°28' W 000°21'1020.1
2018-Nov-01 12:31N 49°38' W 000°24'920.2
2018-Nov-01 12:03N 49°47' W 000°28'120.4
2018-Nov-01 12:00N 49°48' W 000°29'1020.3
2018-Nov-01 11:31N 49°57' W 000°34'920.0
2018-Nov-01 11:03N 50°06' W 000°40'119.8
2018-Nov-01 11:00N 50°06' W 000°40'2619.4
2018-Nov-01 09:39N 50°31' W 000°55'318.5
2018-Nov-01 09:31N 50°33' W 000°56'818.0
2018-Nov-01 09:03N 50°41' W 001°00'116.5
2018-Nov-01 09:01N 50°42' W 001°01'714.4
2018-Nov-01 08:30N 50°48' W 001°07'1 2.0
2018-Nov-01 08:03N 50°49' W 001°06'0 0.0
2018-Nov-01 08:00N 50°49' W 001°06'0 0.0
2018-Nov-01 07:30N 50°49' W 001°06'0 0.0
2018-Nov-01 07:03N 50°49' W 001°06'0 0.0
2018-Nov-01 07:00N 50°49' W 001°06'0 0.2
2018-Nov-01 06:30N 50°49' W 001°06'4 9.0
2018-Nov-01 06:04N 50°45' W 001°05'119.1
2018-Nov-01 06:01N 50°44' W 001°04'815.8
2018-Nov-01 05:31N 50°37' W 000°58'715.1
2018-Nov-01 05:04N 50°31' W 000°54'115.2
2018-Nov-01 05:01N 50°30' W 000°54'3014.1
2018-Nov-01 02:54N 50°03' W 000°34'  
Track history (hours):
 
Tides and Currents Weather Stations Pressure Air Temp Water Temp Dewpoint Dewpoint Depression Visibility Wind Speed Wind Dir Waves Ship Positions

Normandie

Operator: Brittany Ferries

Last reported at 2018-Nov-11 02:32 UTC. Time now 2018-Nov-14 03:07 UTC.
Position N 50°01' W 000°38'.

Length 161 m; beam 27 m.

Type: Passenger vessel. MMSI: 227273000.

Date/timePositionNaut miles runAvg speedWind from/ knotsBaromVisibWave heightAir tempDewpointWater temp
2018-Nov-11 02:32N 50°01' W 000°38'1714.0
2018-Nov-11 01:20N 50°17' W 000°47'1713.1
2018-Nov-11 00:04N 50°33' W 000°55'013.1
2018-Nov-11 00:02N 50°33' W 000°55'713.5
2018-Nov-10 23:32N 50°39' W 000°59'713.6
2018-Nov-10 23:02N 50°45' W 001°05'4 7.7
2018-Nov-10 22:33N 50°49' W 001°06'0 0.0
2018-Nov-10 22:03N 50°49' W 001°06'0 0.0
2018-Nov-10 21:32N 50°49' W 001°06'1 1.8
2018-Nov-10 21:02N 50°48' W 001°07'713.4
2018-Nov-10 20:32N 50°43' W 001°00'917.6
2018-Nov-10 20:03N 50°35' W 000°56'2519.0
2018-Nov-10 18:43N 50°11' W 000°43'419.6
2018-Nov-10 18:32N 50°07' W 000°41'1019.8
2018-Nov-10 18:02N 49°58' W 000°36'1020.0
2018-Nov-10 17:33N 49°49' W 000°31'1020.0
2018-Nov-10 17:02N 49°39' W 000°26'1020.0
2018-Nov-10 16:32N 49°30' W 000°20'1020.1
2018-Nov-10 16:03N 49°21' W 000°15'3 6.6
2018-Nov-10 15:32N 49°17' W 000°15'0 0.0
2018-Nov-10 15:02N 49°17' W 000°15'0 0.0
2018-Nov-10 14:32N 49°17' W 000°15'5 9.0
2018-Nov-10 14:02N 49°22' W 000°15'918.4
2018-Nov-10 13:32N 49°30' W 000°20'918.7
2018-Nov-10 13:02N 49°39' W 000°26'918.9
2018-Nov-10 12:32N 49°48' W 000°31'1019.3
2018-Nov-10 12:02N 49°57' W 000°36'1019.4
2018-Nov-10 11:32N 50°06' W 000°41'2818.8
2018-Nov-10 10:02N 50°33' W 000°55'918.3
2018-Nov-10 09:32N 50°41' W 001°00'713.3
2018-Nov-10 09:02N 50°47' W 001°06'2 3.7
2018-Nov-10 08:32N 50°49' W 001°06'0 0.0
2018-Nov-10 08:02N 50°49' W 001°06'0 0.0
2018-Nov-10 07:32N 50°49' W 001°06'0 0.0
2018-Nov-10 07:02N 50°49' W 001°06'0 0.8
2018-Nov-10 06:32N 50°49' W 001°06'511.0
2018-Nov-10 06:02N 50°44' W 001°03'714.5
2018-Nov-10 05:32N 50°37' W 001°00'917.5
2018-Nov-10 05:02N 50°28' W 001°03'2014.7
2018-Nov-10 03:40N 50°08' W 001°11'313.9
2018-Nov-10 03:29N 50°06' W 001°13'614.2
2018-Nov-10 03:02N 50°00' W 001°16'714.5
2018-Nov-10 02:32N 49°53' W 001°19'611.4
2018-Nov-10 02:02N 49°48' W 001°16'714.6
2018-Nov-10 01:33N 49°44' W 001°06'612.8
2018-Nov-10 01:02N 49°41' W 000°58'611.6
2018-Nov-10 00:32N 49°38' W 000°50'611.0
2018-Nov-10 00:02N 49°35' W 000°43'713.7
2018-Nov-09 23:32N 49°31' W 000°34'714.2
2018-Nov-09 23:02N 49°28' W 000°24'713.9
2018-Nov-09 22:32N 49°24' W 000°16'612.4
2018-Nov-09 22:02N 49°17' W 000°15'0 0.1
2018-Nov-09 21:32N 49°17' W 000°15'0 0.0
2018-Nov-09 21:02N 49°17' W 000°15'0 0.0
2018-Nov-09 20:32N 49°17' W 000°15'0 0.0
2018-Nov-09 20:02N 49°17' W 000°15'0 0.0
2018-Nov-09 19:32N 49°17' W 000°15'0 0.0
2018-Nov-09 19:02N 49°17' W 000°15'0 0.0
2018-Nov-09 18:32N 49°17' W 000°15'0 0.0
2018-Nov-09 18:02N 49°17' W 000°15'0 0.0
2018-Nov-09 17:32N 49°17' W 000°15'0 0.0
2018-Nov-09 17:02N 49°17' W 000°15'0 0.0
2018-Nov-09 16:32N 49°17' W 000°15'0 0.0
2018-Nov-09 16:02N 49°17' W 000°15'0 0.0
2018-Nov-09 15:32N 49°17' W 000°15'0 0.0
2018-Nov-09 15:02N 49°17' W 000°15'0 0.0
2018-Nov-09 14:32N 49°17' W 000°15'1 1.7
2018-Nov-09 14:03N 49°18' W 000°15'816.5
2018-Nov-09 13:32N 49°26' W 000°18'918.2
2018-Nov-09 13:03N 49°35' W 000°23'815.9
2018-Nov-09 12:32N 49°42' W 000°26'816.0
2018-Nov-09 12:02N 49°50' W 000°29'816.2
2018-Nov-09 11:32N 49°58' W 000°33'816.3
2018-Nov-09 11:02N 50°06' W 000°37'3018.0
2018-Nov-09 09:23N 50°33' W 000°55'618.8
2018-Nov-09 09:02N 50°39' W 000°59'816.9
2018-Nov-09 08:32N 50°46' W 001°06'2 4.8
2018-Nov-09 08:02N 50°49' W 001°06'0 0.0
2018-Nov-09 07:32N 50°49' W 001°06'0 0.0
2018-Nov-09 07:02N 50°49' W 001°06'1 1.6
2018-Nov-09 06:32N 50°48' W 001°07'611.2
2018-Nov-09 06:03N 50°44' W 001°02'713.7
2018-Nov-09 05:33N 50°37' W 000°58'714.8
2018-Nov-09 05:02N 50°30' W 000°54'2511.5
2018-Nov-09 02:54N 50°07' W 000°41'510.8
2018-Nov-09 02:28N 50°03' W 000°39'511.5
2018-Nov-09 02:03N 49°58' W 000°36'611.5
2018-Nov-09 01:32N 49°53' W 000°32'611.5
2018-Nov-09 01:02N 49°47' W 000°29'611.3
2018-Nov-09 00:32N 49°42' W 000°26'611.0
2018-Nov-09 00:02N 49°37' W 000°22'510.6
2018-Nov-08 23:33N 49°32' W 000°19'510.4
2018-Nov-08 23:02N 49°27' W 000°17'510.3
2018-Nov-08 22:33N 49°22' W 000°15'510.0
2018-Nov-08 22:02N 49°17' W 000°15'0 0.1
2018-Nov-08 21:32N 49°17' W 000°15'0 0.0
2018-Nov-08 21:02N 49°17' W 000°15'0 0.0
2018-Nov-08 20:32N 49°17' W 000°15'2 4.0
2018-Nov-08 20:03N 49°19' W 000°15'918.2
2018-Nov-08 19:33N 49°28' W 000°19'918.6
2018-Nov-08 19:03N 49°36' W 000°25'1019.0
2018-Nov-08 18:32N 49°46' W 000°29'918.9
2018-Nov-08 18:02N 49°55' W 000°34'918.3
2018-Nov-08 17:33N 50°03' W 000°39'3117.8
2018-Nov-08 15:49N 50°32' W 000°57'518.0
2018-Nov-08 15:33N 50°36' W 000°58'816.4
2018-Nov-08 15:03N 50°44' W 001°03'5 9.9
2018-Nov-08 14:32N 50°49' W 001°06'0 0.0
2018-Nov-08 14:02N 50°49' W 001°06'0 0.0
2018-Nov-08 13:32N 50°49' W 001°06'0 0.2
2018-Nov-08 13:02N 50°49' W 001°06'4 8.4
2018-Nov-08 12:32N 50°45' W 001°05'918.0
2018-Nov-08 12:02N 50°37' W 000°57'918.4
2018-Nov-08 11:32N 50°28' W 000°52'1619.3
2018-Nov-08 10:42N 50°13' W 000°43'419.0
2018-Nov-08 10:28N 50°09' W 000°41'818.7
2018-Nov-08 10:02N 50°01' W 000°37'918.5
2018-Nov-08 09:32N 49°52' W 000°32'918.7
2018-Nov-08 09:02N 49°44' W 000°28'919.0
2018-Nov-08 08:32N 49°35' W 000°23'918.8
2018-Nov-08 08:02N 49°26' W 000°18'817.0
2018-Nov-08 07:33N 49°18' W 000°15'0 0.5
2018-Nov-08 07:02N 49°17' W 000°15'0 0.0
2018-Nov-08 06:32N 49°17' W 000°15'0 0.0
2018-Nov-08 06:02N 49°17' W 000°15'0 0.3
2018-Nov-08 05:32N 49°17' W 000°15'713.0
2018-Nov-08 05:02N 49°24' W 000°15'917.3
2018-Nov-08 04:32N 49°32' W 000°21'917.1
2018-Nov-08 04:02N 49°39' W 000°26'816.9
2018-Nov-08 03:32N 49°47' W 000°30'816.6
2018-Nov-08 03:02N 49°55' W 000°35'816.3
2018-Nov-08 02:32N 50°03' W 000°40'1114.6
2018-Nov-08 01:48N 50°13' W 000°46'2014.8
2018-Nov-08 00:28N 50°32' W 000°55'614.7
2018-Nov-08 00:02N 50°38' W 000°58'713.8
2018-Nov-07 23:32N 50°44' W 001°03'510.9
2018-Nov-07 23:02N 50°49' W 001°06'0 0.8
2018-Nov-07 22:32N 50°49' W 001°06'0 0.0
2018-Nov-07 22:03N 50°49' W 001°06'0 0.1
2018-Nov-07 21:32N 50°49' W 001°06'3 5.4
2018-Nov-07 21:02N 50°46' W 001°05'917.2
2018-Nov-07 20:32N 50°39' W 000°59'918.1
2018-Nov-07 20:02N 50°30' W 000°54'2917.4
2018-Nov-07 18:22N 50°03' W 000°38'617.9
2018-Nov-07 18:02N 49°57' W 000°35'918.1
2018-Nov-07 17:32N 49°49' W 000°30'918.7
2018-Nov-07 17:02N 49°40' W 000°25'918.8
2018-Nov-07 16:32N 49°31' W 000°21'1019.4
2018-Nov-07 16:02N 49°22' W 000°15'5 9.4
2018-Nov-07 15:32N 49°17' W 000°15'0 0.0
2018-Nov-07 15:02N 49°17' W 000°15'0 0.0
2018-Nov-07 14:32N 49°17' W 000°15'0 0.0
2018-Nov-07 14:02N 49°17' W 000°15'510.4
2018-Nov-07 13:32N 49°23' W 000°15'918.3
2018-Nov-07 13:02N 49°32' W 000°17'918.3
2018-Nov-07 12:32N 49°41' W 000°20'918.0
2018-Nov-07 12:02N 49°49' W 000°25'918.0
2018-Nov-07 11:32N 49°57' W 000°30'917.9
2018-Nov-07 11:02N 50°06' W 000°35'2917.8
2018-Nov-07 09:24N 50°32' W 000°54'617.8
2018-Nov-07 09:02N 50°38' W 000°58'815.8
2018-Nov-07 08:32N 50°45' W 001°05'4 8.0
2018-Nov-07 08:02N 50°49' W 001°06'0 0.0
2018-Nov-07 07:32N 50°49' W 001°06'0 0.0
2018-Nov-07 07:02N 50°49' W 001°06'0 0.3
2018-Nov-07 06:32N 50°49' W 001°06'510.2
2018-Nov-07 06:03N 50°44' W 001°03'611.6
2018-Nov-07 05:33N 50°39' W 000°58'714.3
2018-Nov-07 05:03N 50°32' W 000°56'714.3
2018-Nov-07 04:32N 50°25' W 000°54'6312.6
2018-Nov-06 23:31N 49°27' W 000°13'1 2.4
2018-Nov-06 23:03N 49°26' W 000°13'0 2.3
2018-Nov-06 23:01N 49°26' W 000°13'9 9.0
2018-Nov-06 22:00N 49°17' W 000°15'0 0.0
2018-Nov-06 21:30N 49°17' W 000°15'0 0.0
2018-Nov-06 21:03N 49°17' W 000°15'0 0.0
2018-Nov-06 21:00N 49°17' W 000°15'0 0.0
2018-Nov-06 20:30N 49°17' W 000°15'512.0
2018-Nov-06 20:03N 49°23' W 000°14'118.7
2018-Nov-06 20:00N 49°24' W 000°14'1019.2
2018-Nov-06 19:30N 49°32' W 000°20'919.1
2018-Nov-06 19:03N 49°40' W 000°24'119.6
2018-Nov-06 19:00N 49°41' W 000°25'1019.7
2018-Nov-06 18:30N 49°51' W 000°30'919.9
2018-Nov-06 18:03N 49°59' W 000°34'119.8
2018-Nov-06 18:00N 50°00' W 000°35'3519.3
2018-Nov-06 16:10N 50°33' W 000°53'218.8
2018-Nov-06 16:03N 50°36' W 000°54'118.8
2018-Nov-06 16:00N 50°36' W 000°55'816.7
2018-Nov-06 15:30N 50°44' W 001°02'613.1
2018-Nov-06 15:04N 50°48' W 001°07'0 8.7
2018-Nov-06 15:00N 50°49' W 001°06'0 0.6
2018-Nov-06 14:30N 50°49' W 001°06'0 0.0
2018-Nov-06 14:03N 50°49' W 001°06'0 0.0
2018-Nov-06 14:00N 50°49' W 001°06'0 0.0
2018-Nov-06 13:30N 50°49' W 001°06'0 0.2
2018-Nov-06 13:04N 50°49' W 001°06'0 5.6
2018-Nov-06 13:00N 50°49' W 001°06'612.2
2018-Nov-06 12:31N 50°43' W 001°02'817.6
2018-Nov-06 12:03N 50°35' W 000°59'117.9
2018-Nov-06 12:01N 50°35' W 000°59'1318.5
2018-Nov-06 11:18N 50°22' W 000°54'1019.6
2018-Nov-06 10:49N 50°15' W 000°43'719.0
2018-Nov-06 10:28N 50°09' W 000°40'818.8
2018-Nov-06 10:03N 50°02' W 000°36'118.6
2018-Nov-06 10:00N 50°01' W 000°35'918.5
2018-Nov-06 09:30N 49°52' W 000°30'818.3
2018-Nov-06 09:03N 49°44' W 000°25'118.5
2018-Nov-06 09:01N 49°44' W 000°25'918.4
2018-Nov-06 08:31N 49°35' W 000°21'818.0
2018-Nov-06 08:03N 49°27' W 000°18'118.3
2018-Nov-06 08:01N 49°26' W 000°17'816.8
2018-Nov-06 07:31N 49°18' W 000°15'1 1.1
2018-Nov-06 07:04N 49°17' W 000°15'0 0.0
2018-Nov-06 07:01N 49°17' W 000°15'0 0.0
2018-Nov-06 06:31N 49°17' W 000°15'0 0.0
2018-Nov-06 06:03N 49°17' W 000°15'0 0.0
2018-Nov-06 06:01N 49°17' W 000°15'0 0.2
2018-Nov-06 05:31N 49°17' W 000°15'714.9
2018-Nov-06 05:04N 49°24' W 000°15'119.6
2018-Nov-06 05:00N 49°25' W 000°16'816.9
2018-Nov-06 04:31N 49°32' W 000°21'716.3
2018-Nov-06 04:03N 49°39' W 000°27'116.0
2018-Nov-06 04:01N 49°40' W 000°27'815.9
2018-Nov-06 03:31N 49°47' W 000°33'715.5
2018-Nov-06 03:03N 49°53' W 000°37'115.4
2018-Nov-06 03:01N 49°54' W 000°38'815.2
2018-Nov-06 02:30N 50°01' W 000°41'715.3
2018-Nov-06 02:03N 50°08' W 000°44'215.2
2018-Nov-06 01:57N 50°09' W 000°45'715.2
2018-Nov-06 01:31N 50°16' W 000°48'1515.4
2018-Nov-06 00:31N 50°30' W 000°55'1514.6
2018-Nov-05 23:31N 50°44' W 001°03'510.7
2018-Nov-05 23:03N 50°48' W 001°07'0 8.6
2018-Nov-05 23:00N 50°49' W 001°07'1 1.1
2018-Nov-05 22:30N 50°49' W 001°06'0 0.0
2018-Nov-05 22:03N 50°49' W 001°06'0 0.0
2018-Nov-05 22:00N 50°49' W 001°06'0 0.2
2018-Nov-05 21:30N 50°49' W 001°06'3 5.6
2018-Nov-05 21:03N 50°46' W 001°06'117.0
2018-Nov-05 21:00N 50°45' W 001°05'917.7
2018-Nov-05 20:30N 50°38' W 000°58'919.3
2018-Nov-05 20:03N 50°29' W 000°54'118.9
2018-Nov-05 20:00N 50°28' W 000°53'1319.3
2018-Nov-05 19:19N 50°16' W 000°46'518.9
2018-Nov-05 19:03N 50°11' W 000°43'118.9
2018-Nov-05 19:00N 50°11' W 000°43'918.7
2018-Nov-05 18:30N 50°02' W 000°38'818.5
2018-Nov-05 18:03N 49°54' W 000°33'118.5
2018-Nov-05 18:00N 49°53' W 000°33'918.5
2018-Nov-05 17:30N 49°44' W 000°28'818.6
2018-Nov-05 17:03N 49°37' W 000°24'118.5
2018-Nov-05 17:00N 49°36' W 000°23'918.7
2018-Nov-05 16:30N 49°27' W 000°18'817.9
2018-Nov-05 16:03N 49°19' W 000°15'114.3
2018-Nov-05 16:00N 49°18' W 000°15'1 2.3
2018-Nov-05 15:30N 49°17' W 000°15'0 0.0
2018-Nov-05 15:03N 49°17' W 000°15'0 0.0
2018-Nov-05 15:01N 49°17' W 000°15'0 0.2
2018-Nov-05 14:30N 49°17' W 000°15'511.6
2018-Nov-05 14:04N 49°22' W 000°15'118.4
2018-Nov-05 14:01N 49°23' W 000°15'1818.4
2018-Nov-05 13:03N 49°39' W 000°26'118.2
2018-Nov-05 13:00N 49°40' W 000°26'918.2
2018-Nov-05 12:31N 49°49' W 000°31'818.0
2018-Nov-05 12:04N 49°56' W 000°37'117.4
2018-Nov-05 12:01N 49°57' W 000°37'918.0
2018-Nov-05 11:30N 50°05' W 000°43'818.1
2018-Nov-05 11:04N 50°13' W 000°47'118.2
2018-Nov-05 11:00N 50°14' W 000°48'918.8
2018-Nov-05 10:31N 50°23' W 000°51'918.8
2018-Nov-05 10:03N 50°31' W 000°54'118.1
2018-Nov-05 09:58N 50°33' W 000°55'918.6
2018-Nov-05 09:30N 50°41' W 001°00'816.8
2018-Nov-05 09:03N 50°47' W 001°06'110.7
2018-Nov-05 09:00N 50°47' W 001°07'1 2.7
2018-Nov-05 08:30N 50°49' W 001°06'0 0.0
2018-Nov-05 08:03N 50°49' W 001°06'0 0.0
2018-Nov-05 08:00N 50°49' W 001°06'0 0.0
2018-Nov-05 07:30N 50°49' W 001°06'0 0.0
2018-Nov-05 07:03N 50°49' W 001°06'0 0.0
2018-Nov-05 07:00N 50°49' W 001°06'0 0.2
2018-Nov-05 06:31N 50°49' W 001°06'4 8.2
2018-Nov-05 06:03N 50°45' W 001°05'114.6
2018-Nov-05 06:00N 50°44' W 001°04'715.0
2018-Nov-05 05:30N 50°38' W 000°58'714.9
2018-Nov-05 05:03N 50°32' W 000°54'114.5
2018-Nov-05 05:00N 50°31' W 000°53'714.6
2018-Nov-05 04:30N 50°24' W 000°49'714.9
2018-Nov-05 04:03N 50°18' W 000°48'514.8
2018-Nov-05 03:42N 50°12' W 000°46'514.7
2018-Nov-05 03:23N 50°08' W 000°44'310.7
2018-Nov-05 03:03N 50°05' W 000°43'110.7
2018-Nov-05 03:00N 50°04' W 000°43'510.9
2018-Nov-05 02:30N 49°59' W 000°40'511.0
2018-Nov-05 02:03N 49°54' W 000°38'111.1
2018-Nov-05 02:00N 49°54' W 000°38'611.2
2018-Nov-05 01:30N 49°48' W 000°35'511.3
2018-Nov-05 01:03N 49°44' W 000°32'111.4
2018-Nov-05 01:00N 49°43' W 000°32'611.3
2018-Nov-05 00:30N 49°38' W 000°29'511.4
2018-Nov-05 00:03N 49°33' W 000°26'111.4
2018-Nov-05 00:00N 49°33' W 000°25'611.6
2018-Nov-04 23:30N 49°28' W 000°21'511.6
2018-Nov-04 23:03N 49°23' W 000°16'111.5
2018-Nov-04 23:00N 49°23' W 000°16'510.8
2018-Nov-04 22:31N 49°17' W 000°15'0 0.1
2018-Nov-04 22:03N 49°17' W 000°15'0 0.0
2018-Nov-04 22:01N 49°17' W 000°15'0 0.0
2018-Nov-04 21:31N 49°17' W 000°15'0 0.0
2018-Nov-04 21:04N 49°17' W 000°15'0 0.0
2018-Nov-04 21:01N 49°17' W 000°15'0 0.0
2018-Nov-04 20:31N 49°17' W 000°15'4 9.6
2018-Nov-04 20:03N 49°22' W 000°14'118.9
2018-Nov-04 20:00N 49°23' W 000°14'918.7
2018-Nov-04 19:30N 49°32' W 000°17'818.7
2018-Nov-04 19:03N 49°40' W 000°21'119.1
2018-Nov-04 19:00N 49°41' W 000°22'1019.1
2018-Nov-04 18:30N 49°50' W 000°27'919.4
2018-Nov-04 18:03N 49°58' W 000°33'119.8
2018-Nov-04 18:00N 49°58' W 000°34'1519.5
2018-Nov-04 17:14N 50°12' W 000°43'519.5
2018-Nov-04 16:58N 50°17' W 000°46'1719.3
2018-Nov-04 16:06N 50°33' W 000°55'119.3
2018-Nov-04 16:03N 50°34' W 000°55'119.2
2018-Nov-04 16:00N 50°35' W 000°56'917.6
2018-Nov-04 15:30N 50°43' W 000°60'714.4
2018-Nov-04 15:03N 50°48' W 001°07'0 9.7
2018-Nov-04 15:01N 50°48' W 001°07'1 1.7
2018-Nov-04 14:30N 50°49' W 001°06'0 0.0
2018-Nov-04 14:03N 50°49' W 001°06'0 0.0
2018-Nov-04 14:00N 50°49' W 001°06'0 0.0
2018-Nov-04 13:30N 50°49' W 001°06'1 1.9
2018-Nov-04 13:03N 50°48' W 001°07'110.3
2018-Nov-04 13:00N 50°48' W 001°07'714.1
2018-Nov-04 12:30N 50°42' W 001°01'817.0
2018-Nov-04 12:03N 50°34' W 000°59'118.2
2018-Nov-04 12:00N 50°33' W 000°59'1018.5
2018-Nov-04 11:29N 50°24' W 000°54'818.9
2018-Nov-04 11:03N 50°16' W 000°49'119.3
2018-Nov-04 11:00N 50°16' W 000°49'1019.4
2018-Nov-04 10:30N 50°07' W 000°42'919.2
2018-Nov-04 10:04N 49°59' W 000°36'119.2
2018-Nov-04 10:00N 49°58' W 000°36'1019.2
2018-Nov-04 09:30N 49°49' W 000°31'919.0
2018-Nov-04 09:03N 49°41' W 000°26'119.0
2018-Nov-04 09:00N 49°40' W 000°26'918.8
2018-Nov-04 08:30N 49°32' W 000°20'818.5
2018-Nov-04 08:03N 49°24' W 000°16'118.4
2018-Nov-04 08:00N 49°23' W 000°15'510.9
2018-Nov-04 07:30N 49°17' W 000°15'0 0.0
2018-Nov-04 07:03N 49°17' W 000°15'0 0.0
2018-Nov-04 07:00N 49°17' W 000°15'0 0.0
2018-Nov-04 06:30N 49°17' W 000°15'0 0.0
2018-Nov-04 06:03N 49°17' W 000°15'0 0.0
2018-Nov-04 06:00N 49°17' W 000°15'0 0.2
2018-Nov-04 05:31N 49°17' W 000°15'613.8
2018-Nov-04 05:03N 49°23' W 000°15'116.9
2018-Nov-04 05:00N 49°24' W 000°15'816.6
2018-Nov-04 04:30N 49°32' W 000°19'716.5
2018-Nov-04 04:03N 49°39' W 000°23'116.7
2018-Nov-04 04:00N 49°40' W 000°23'816.7
2018-Nov-04 03:30N 49°48' W 000°27'816.9
2018-Nov-04 03:03N 49°55' W 000°30'117.0
2018-Nov-04 03:00N 49°56' W 000°31'816.7
2018-Nov-04 02:30N 50°04' W 000°36'816.3
2018-Nov-04 02:00N 50°11' W 000°41'815.9
2018-Nov-04 01:31N 50°19' W 000°46'614.0
2018-Nov-04 01:03N 50°25' W 000°49'613.3
2018-Nov-04 00:36N 50°30' W 000°53'213.2
2018-Nov-04 00:28N 50°32' W 000°54'513.3
2018-Nov-04 00:03N 50°37' W 000°58'113.6
2018-Nov-04 00:00N 50°37' W 000°58'713.8
2018-Nov-03 23:30N 50°43' W 001°03'612.7
2018-Nov-03 23:03N 50°49' W 001°07'0 8.2
2018-Nov-03 23:00N 50°49' W 001°06'0 0.4
2018-Nov-03 22:30N 50°49' W 001°06'6 3.2
2018-Nov-03 20:30N 50°43' W 001°02'818.4
2018-Nov-03 20:03N 50°35' W 000°57'119.8
2018-Nov-03 20:00N 50°34' W 000°57'1419.6
2018-Nov-03 19:16N 50°21' W 000°49'819.5
2018-Nov-03 18:50N 50°13' W 000°44'719.4
2018-Nov-03 18:28N 50°06' W 000°40'819.0
2018-Nov-03 18:03N 49°59' W 000°36'119.0
2018-Nov-03 18:00N 49°58' W 000°35'917.7
2018-Nov-03 17:30N 49°49' W 000°31'817.7
2018-Nov-03 17:03N 49°42' W 000°27'117.8
2018-Nov-03 17:00N 49°41' W 000°27'917.7
2018-Nov-03 16:30N 49°33' W 000°22'817.0
2018-Nov-03 16:03N 49°26' W 000°17'117.4
2018-Nov-03 16:00N 49°25' W 000°17'815.2
2018-Nov-03 15:30N 49°17' W 000°15'0 0.1
2018-Nov-03 15:03N 49°17' W 000°15'0 0.0
2018-Nov-03 15:00N 49°17' W 000°15'0 0.0
2018-Nov-03 14:30N 49°17' W 000°15'0 0.0
2018-Nov-03 14:03N 49°17' W 000°15'0 0.0
2018-Nov-03 14:00N 49°17' W 000°15'4 8.7
2018-Nov-03 13:31N 49°22' W 000°14'918.9
2018-Nov-03 13:03N 49°30' W 000°15'118.9
2018-Nov-03 13:01N 49°31' W 000°15'918.9
2018-Nov-03 12:31N 49°40' W 000°21'818.7
2018-Nov-03 12:04N 49°47' W 000°27'118.7
2018-Nov-03 12:01N 49°48' W 000°28'918.6
2018-Nov-03 11:30N 49°56' W 000°34'818.3
2018-Nov-03 11:03N 50°04' W 000°40'118.3
2018-Nov-03 11:01N 50°04' W 000°41'1418.4
2018-Nov-03 10:15N 50°18' W 000°48'818.7
2018-Nov-03 09:50N 50°25' W 000°52'818.4
2018-Nov-03 09:22N 50°33' W 000°56'618.4
2018-Nov-03 09:03N 50°39' W 000°59'117.7
2018-Nov-03 09:01N 50°39' W 000°60'815.8
2018-Nov-03 08:31N 50°46' W 001°06'2 5.5
2018-Nov-03 08:03N 50°49' W 001°06'0 0.0
2018-Nov-03 08:00N 50°49' W 001°06'0 0.0
2018-Nov-03 07:30N 50°49' W 001°06'0 0.0
2018-Nov-03 07:03N 50°49' W 001°06'0 0.0
2018-Nov-03 07:00N 50°49' W 001°06'0 0.3
2018-Nov-03 06:30N 50°49' W 001°06'3 7.4
2018-Nov-03 06:04N 50°45' W 001°05'115.2
2018-Nov-03 06:01N 50°45' W 001°05'714.8
2018-Nov-03 05:30N 50°38' W 000°59'715.3
2018-Nov-03 05:03N 50°32' W 000°56'115.3
2018-Nov-03 05:00N 50°31' W 000°55'2012.2
2018-Nov-03 03:22N 50°12' W 000°46'310.9
2018-Nov-03 03:04N 50°09' W 000°46'111.0
2018-Nov-03 03:00N 50°08' W 000°46'611.2
2018-Nov-03 02:30N 50°02' W 000°46'510.7
2018-Nov-03 02:03N 49°58' W 000°45'110.6
2018-Nov-03 02:00N 49°57' W 000°45'510.7
2018-Nov-03 01:31N 49°52' W 000°42'510.9
2018-Nov-03 01:03N 49°47' W 000°40'111.0
2018-Nov-03 01:00N 49°47' W 000°39'611.2
2018-Nov-03 00:30N 49°42' W 000°35'511.4
2018-Nov-03 00:03N 49°38' W 000°31'111.4
2018-Nov-03 00:00N 49°37' W 000°30'611.5
2018-Nov-02 23:30N 49°32' W 000°26'511.8
2018-Nov-02 23:03N 49°28' W 000°21'111.8
2018-Nov-02 23:00N 49°27' W 000°21'611.7
2018-Nov-02 22:30N 49°22' W 000°16'511.2
2018-Nov-02 22:03N 49°17' W 000°15'0 2.2
2018-Nov-02 22:00N 49°17' W 000°15'0 0.1
2018-Nov-02 21:30N 49°17' W 000°15'0 0.0
2018-Nov-02 21:03N 49°17' W 000°15'0 0.0
2018-Nov-02 21:00N 49°17' W 000°15'0 0.0
2018-Nov-02 20:30N 49°17' W 000°15'3 6.1
2018-Nov-02 20:03N 49°20' W 000°14'116.8
2018-Nov-02 20:00N 49°21' W 000°14'816.0
2018-Nov-02 19:31N 49°28' W 000°19'816.9
2018-Nov-02 19:03N 49°35' W 000°23'116.8
2018-Nov-02 19:00N 49°36' W 000°23'917.2
2018-Nov-02 18:30N 49°44' W 000°28'817.6
2018-Nov-02 18:03N 49°52' W 000°32'117.6
2018-Nov-02 18:00N 49°53' W 000°33'918.0
2018-Nov-02 17:30N 50°01' W 000°37'3418.2
2018-Nov-02 15:37N 50°33' W 000°56'217.9
2018-Nov-02 15:29N 50°35' W 000°57'716.6
2018-Nov-02 15:03N 50°42' W 001°01'116.0
2018-Nov-02 15:00N 50°43' W 001°02'613.0
2018-Nov-02 14:30N 50°49' W 001°06'0 0.9
2018-Nov-02 14:00N 50°49' W 001°06'0 0.0
2018-Nov-02 13:30N 50°49' W 001°06'0 0.0
2018-Nov-02 13:03N 50°49' W 001°06'0 0.0
2018-Nov-02 13:00N 50°49' W 001°06'2 3.6
2018-Nov-02 12:30N 50°47' W 001°06'715.6
2018-Nov-02 12:03N 50°42' W 000°58'117.6
2018-Nov-02 12:00N 50°41' W 000°58'918.8
2018-Nov-02 11:30N 50°32' W 000°54'1319.2
2018-Nov-02 10:50N 50°20' W 000°48'1819.7
2018-Nov-02 09:55N 50°03' W 000°39'819.8
2018-Nov-02 09:30N 49°55' W 000°35'919.8
2018-Nov-02 09:03N 49°46' W 000°31'120.1
2018-Nov-02 09:00N 49°45' W 000°30'1019.8
2018-Nov-02 08:30N 49°36' W 000°25'919.7
2018-Nov-02 08:03N 49°28' W 000°19'119.8
2018-Nov-02 08:00N 49°27' W 000°18'918.3
2018-Nov-02 07:30N 49°19' W 000°15'1 2.6
2018-Nov-02 07:03N 49°17' W 000°15'0 0.0
2018-Nov-02 07:00N 49°17' W 000°15'0 0.0
2018-Nov-02 06:30N 49°17' W 000°15'0 0.0
2018-Nov-02 06:03N 49°17' W 000°15'0 0.0
2018-Nov-02 06:00N 49°17' W 000°15'0 0.3
2018-Nov-02 05:31N 49°17' W 000°15'511.7
2018-Nov-02 05:03N 49°23' W 000°14'118.7
2018-Nov-02 05:00N 49°23' W 000°14'815.7
2018-Nov-02 04:30N 49°31' W 000°18'715.7
2018-Nov-02 04:03N 49°38' W 000°21'115.7
2018-Nov-02 04:00N 49°38' W 000°21'816.0
2018-Nov-02 03:30N 49°46' W 000°25'715.7
2018-Nov-02 03:03N 49°53' W 000°29'115.4
2018-Nov-02 03:00N 49°53' W 000°29'815.5
2018-Nov-02 02:30N 50°01' W 000°34'3415.3
2018-Nov-02 00:18N 50°31' W 000°55'414.8
2018-Nov-02 00:03N 50°35' W 000°57'114.6
2018-Nov-02 00:00N 50°36' W 000°57'714.2
2018-Nov-01 23:30N 50°42' W 000°59'613.8
2018-Nov-01 23:03N 50°47' W 001°06'110.2
2018-Nov-01 23:00N 50°47' W 001°07'2 3.1
2018-Nov-01 22:30N 50°49' W 001°06'0 0.0
2018-Nov-01 22:03N 50°49' W 001°06'0 0.0
2018-Nov-01 22:00N 50°49' W 001°06'0 0.0
2018-Nov-01 21:30N 50°49' W 001°06'1 1.5
2018-Nov-01 21:04N 50°48' W 001°07'0 9.4
2018-Nov-01 21:00N 50°48' W 001°07'713.7
2018-Nov-01 20:30N 50°42' W 001°01'818.0
2018-Nov-01 20:03N 50°35' W 000°56'119.4
2018-Nov-01 20:00N 50°34' W 000°55'1019.4
2018-Nov-01 19:30N 50°25' W 000°49'2419.3
2018-Nov-01 18:16N 50°02' W 000°38'419.2
2018-Nov-01 18:03N 49°58' W 000°37'119.3
2018-Nov-01 18:00N 49°57' W 000°36'1019.2
2018-Nov-01 17:30N 49°48' W 000°31'919.1
2018-Nov-01 17:03N 49°40' W 000°26'119.2
2018-Nov-01 17:00N 49°39' W 000°26'918.9
2018-Nov-01 16:30N 49°31' W 000°20'818.9
2018-Nov-01 16:03N 49°23' W 000°15'119.0
2018-Nov-01 16:00N 49°22' W 000°15'5 9.3
2018-Nov-01 15:31N 49°17' W 000°15'0 0.0
2018-Nov-01 15:03N 49°17' W 000°15'0 0.0
2018-Nov-01 15:00N 49°17' W 000°15'0 0.0
2018-Nov-01 14:03N 49°17' W 000°15'0 0.0
2018-Nov-01 14:00N 49°17' W 000°15'2 4.4
2018-Nov-01 13:31N 49°20' W 000°14'919.2
2018-Nov-01 13:03N 49°27' W 000°20'120.4
2018-Nov-01 13:00N 49°28' W 000°21'1020.1
2018-Nov-01 12:31N 49°38' W 000°24'920.2
2018-Nov-01 12:03N 49°47' W 000°28'120.4
2018-Nov-01 12:00N 49°48' W 000°29'1020.3
2018-Nov-01 11:31N 49°57' W 000°34'920.0
2018-Nov-01 11:03N 50°06' W 000°40'119.8
2018-Nov-01 11:00N 50°06' W 000°40'2619.4
2018-Nov-01 09:39N 50°31' W 000°55'318.5
2018-Nov-01 09:31N 50°33' W 000°56'818.0
2018-Nov-01 09:03N 50°41' W 001°00'116.5
2018-Nov-01 09:01N 50°42' W 001°01'714.4
2018-Nov-01 08:30N 50°48' W 001°07'1 2.0
2018-Nov-01 08:03N 50°49' W 001°06'0 0.0
2018-Nov-01 08:00N 50°49' W 001°06'0 0.0
2018-Nov-01 07:30N 50°49' W 001°06'0 0.0
2018-Nov-01 07:03N 50°49' W 001°06'0 0.0
2018-Nov-01 07:00N 50°49' W 001°06'0 0.2
2018-Nov-01 06:30N 50°49' W 001°06'4 9.0
2018-Nov-01 06:04N 50°45' W 001°05'119.1
2018-Nov-01 06:01N 50°44' W 001°04'815.8
2018-Nov-01 05:31N 50°37' W 000°58'715.1
2018-Nov-01 05:04N 50°31' W 000°54'115.2
2018-Nov-01 05:01N 50°30' W 000°54'3014.1
2018-Nov-01 02:54N 50°03' W 000°34'  

Dump ship's entire track history